createdAt,value
2022-12-15T00:02:20.098Z,100.00
2022-12-15T00:05:07.187Z,100.00
2022-12-15T00:07:54.292Z,100.00
2022-12-15T00:10:41.365Z,100.00
2022-12-15T00:13:29.662Z,100.00
2022-12-15T00:16:18.862Z,100.00
2022-12-15T00:19:05.911Z,100.00
2022-12-15T00:21:53.220Z,100.00
2022-12-15T00:24:40.142Z,100.00
2022-12-15T00:27:27.343Z,100.00
2022-12-15T00:30:14.492Z,100.00
2022-12-15T00:33:03.270Z,100.00
2022-12-15T00:35:50.130Z,100.00
2022-12-15T00:38:37.474Z,100.00
2022-12-15T00:41:07.265Z,100.00
2022-12-15T00:43:37.629Z,100.00
2022-12-15T00:46:25.120Z,100.00
2022-12-15T00:48:56.504Z,100.00
2022-12-15T00:51:43.290Z,100.00
2022-12-15T00:54:30.975Z,100.00
2022-12-15T00:57:17.942Z,100.00
2022-12-15T01:00:05.320Z,100.00
2022-12-15T01:02:52.365Z,100.00
2022-12-15T01:05:41.271Z,100.00
2022-12-15T01:08:28.081Z,100.00
2022-12-15T01:11:19.183Z,100.00
2022-12-15T01:14:07.202Z,100.00
2022-12-15T01:16:54.632Z,100.00
2022-12-15T01:19:41.423Z,100.00
2022-12-15T01:22:12.851Z,100.00
2022-12-15T01:24:42.564Z,100.00
2022-12-15T01:27:12.482Z,100.00
2022-12-15T01:29:42.232Z,100.00
2022-12-15T01:32:12.141Z,100.00
2022-12-15T01:34:41.651Z,100.00
2022-12-15T01:37:13.080Z,100.00
2022-12-15T01:40:00.281Z,100.00
2022-12-15T01:42:30.281Z,100.00
2022-12-15T01:45:14.674Z,100.00
2022-12-15T01:47:44.792Z,100.00
2022-12-15T01:50:15.323Z,100.00
2022-12-15T01:52:47.263Z,100.00
2022-12-15T01:55:20.587Z,100.00
2022-12-15T01:57:53.809Z,100.00
2022-12-15T02:00:23.575Z,100.00
2022-12-15T02:02:53.706Z,100.00
2022-12-15T02:05:23.643Z,100.00
2022-12-15T02:07:55.021Z,100.00
2022-12-15T02:10:26.683Z,100.00
2022-12-15T02:13:02.083Z,100.00
2022-12-15T02:15:34.963Z,100.00
2022-12-15T02:18:08.052Z,100.00
2022-12-15T02:20:48.952Z,100.00
2022-12-15T02:23:37.551Z,100.00
2022-12-15T02:26:24.733Z,100.00
2022-12-15T02:29:01.580Z,100.00
2022-12-15T02:31:52.151Z,100.00
2022-12-15T02:34:25.015Z,100.00
2022-12-15T02:36:57.451Z,100.00
2022-12-15T02:39:27.522Z,100.00
2022-12-15T02:41:57.023Z,100.00
2022-12-15T02:44:30.082Z,100.00
2022-12-15T02:47:20.711Z,100.00
2022-12-15T02:50:05.704Z,100.00
2022-12-15T02:52:44.174Z,100.00
2022-12-15T02:55:19.103Z,100.00
2022-12-15T02:57:56.104Z,100.00
2022-12-15T03:00:26.201Z,100.00
2022-12-15T03:02:56.953Z,100.00
2022-12-15T03:05:27.534Z,100.00
2022-12-15T03:07:58.966Z,100.00
2022-12-15T03:10:29.213Z,100.00
2022-12-15T03:12:59.201Z,100.00
2022-12-15T03:15:34.922Z,100.00
2022-12-15T03:18:05.252Z,100.00
2022-12-15T03:20:35.081Z,100.00
2022-12-15T03:23:06.232Z,100.00
2022-12-15T03:25:36.253Z,100.00
2022-12-15T03:28:06.035Z,100.00
2022-12-15T03:30:35.954Z,100.00
2022-12-15T03:33:05.785Z,100.00
2022-12-15T03:35:35.785Z,100.00
2022-12-15T03:38:06.913Z,100.00
2022-12-15T03:40:36.792Z,100.00
2022-12-15T03:43:06.774Z,100.00
2022-12-15T03:45:36.750Z,100.00
2022-12-15T03:48:06.555Z,100.00
2022-12-15T03:50:36.563Z,100.00
2022-12-15T03:53:07.726Z,100.00
2022-12-15T03:55:37.698Z,100.00
2022-12-15T03:58:07.322Z,100.00
2022-12-15T04:00:37.342Z,100.00
2022-12-15T04:03:07.104Z,100.00
2022-12-15T04:05:37.264Z,100.00
2022-12-15T04:08:08.362Z,100.00
2022-12-15T04:10:38.285Z,100.00
2022-12-15T04:13:09.003Z,100.00
2022-12-15T04:15:40.104Z,100.00
2022-12-15T04:18:11.267Z,100.00
2022-12-15T04:20:40.624Z,100.00
2022-12-15T04:23:11.882Z,100.00
2022-12-15T04:25:59.107Z,100.00
2022-12-15T04:28:45.864Z,100.00
2022-12-15T04:31:33.946Z,100.00
2022-12-15T04:34:23.081Z,100.00
2022-12-15T04:37:11.882Z,100.00
2022-12-15T04:40:01.553Z,100.00
2022-12-15T04:42:50.413Z,100.00
2022-12-15T04:45:38.236Z,100.00
2022-12-15T04:48:25.404Z,100.00
2022-12-15T04:51:12.183Z,100.00
2022-12-15T04:53:59.276Z,100.00
2022-12-15T04:56:47.451Z,100.00
2022-12-15T04:59:37.111Z,100.00
2022-12-15T05:02:24.165Z,100.00
2022-12-15T05:05:11.451Z,100.00
2022-12-15T05:07:58.473Z,100.00
2022-12-15T05:10:45.602Z,100.00
2022-12-15T05:13:34.245Z,100.00
2022-12-15T05:16:23.763Z,100.00
2022-12-15T05:19:10.704Z,100.00
2022-12-15T05:21:58.151Z,100.00
2022-12-15T05:24:45.083Z,100.00
2022-12-15T05:27:32.294Z,100.00
2022-12-15T05:30:20.484Z,100.00
2022-12-15T05:32:50.484Z,100.00
2022-12-15T05:35:20.053Z,100.00
2022-12-15T05:37:50.774Z,100.00
2022-12-15T05:40:20.353Z,100.00
2022-12-15T05:42:50.465Z,100.00
2022-12-15T05:45:21.825Z,100.00
2022-12-15T05:47:52.403Z,100.00
2022-12-15T05:50:22.950Z,100.00
2022-12-15T05:52:53.043Z,100.00
2022-12-15T05:55:22.644Z,100.00
2022-12-15T05:57:52.973Z,100.00
2022-12-15T06:00:24.573Z,100.00
2022-12-15T06:02:54.684Z,100.00
2022-12-15T06:05:24.223Z,100.00
2022-12-15T06:07:54.804Z,100.00
2022-12-15T06:10:24.323Z,100.00
2022-12-15T06:12:54.561Z,100.00
2022-12-15T06:15:25.711Z,100.00
2022-12-15T06:17:56.315Z,100.00
2022-12-15T06:20:32.306Z,100.00
2022-12-15T06:23:03.805Z,100.00
2022-12-15T06:25:33.814Z,100.00
2022-12-15T06:28:03.834Z,100.00
2022-12-15T06:30:35.175Z,100.00
2022-12-15T06:33:05.866Z,100.00
2022-12-15T06:35:37.577Z,100.00
2022-12-15T06:38:08.029Z,100.00
2022-12-15T06:40:38.215Z,100.00
2022-12-15T06:43:09.031Z,100.00
2022-12-15T06:45:40.115Z,100.00
2022-12-15T06:48:10.116Z,100.00
2022-12-15T06:50:41.294Z,100.00
2022-12-15T06:53:11.335Z,100.00
2022-12-15T06:55:41.004Z,100.00
2022-12-15T06:58:12.511Z,100.00
2022-12-15T07:00:44.317Z,100.00
2022-12-15T07:03:15.657Z,100.00
2022-12-15T07:05:45.724Z,100.00
2022-12-15T07:08:17.057Z,100.00
2022-12-15T07:10:46.784Z,100.00
2022-12-15T07:13:17.155Z,100.00
2022-12-15T07:15:50.380Z,100.00
2022-12-15T07:18:20.498Z,100.00
2022-12-15T07:20:50.094Z,100.00
2022-12-15T07:23:29.584Z,100.00
2022-12-15T07:26:11.819Z,100.00
2022-12-15T07:28:42.384Z,100.00
2022-12-15T07:31:13.646Z,100.00
2022-12-15T07:33:43.771Z,100.00
2022-12-15T07:36:13.595Z,100.00
2022-12-15T07:38:50.847Z,100.00
2022-12-15T07:41:21.497Z,100.00
2022-12-15T07:43:51.393Z,100.00
2022-12-15T07:46:24.441Z,100.00
2022-12-15T07:48:54.816Z,100.00
2022-12-15T07:51:24.656Z,100.00
2022-12-15T07:53:54.753Z,100.00
2022-12-15T07:56:24.756Z,100.00
2022-12-15T07:58:54.848Z,100.00
2022-12-15T08:01:26.376Z,100.00
2022-12-15T08:03:56.999Z,100.00
2022-12-15T08:06:26.675Z,100.00
2022-12-15T08:08:56.706Z,100.00
2022-12-15T08:11:26.547Z,100.00
2022-12-15T08:14:05.745Z,100.00
2022-12-15T08:16:41.410Z,100.00
2022-12-15T08:19:12.646Z,100.00
2022-12-15T08:21:42.961Z,100.00
2022-12-15T08:24:13.676Z,100.00
2022-12-15T08:26:44.206Z,100.00
2022-12-15T08:32:11.561Z,100.00
2022-12-15T08:34:42.542Z,100.00
2022-12-15T08:37:12.605Z,100.00
2022-12-15T08:39:42.847Z,100.00
2022-12-15T08:42:12.703Z,100.00
2022-12-15T08:44:42.744Z,100.00
2022-12-15T08:47:15.322Z,100.00
2022-12-15T08:49:45.453Z,100.00
2022-12-15T08:52:15.104Z,100.00
2022-12-15T08:54:44.942Z,100.00
2022-12-15T08:57:14.978Z,100.00
2022-12-15T08:59:45.088Z,100.00
2022-12-15T09:02:16.817Z,100.00
2022-12-15T09:04:47.209Z,100.00
2022-12-15T09:07:16.895Z,100.00
2022-12-15T09:09:47.380Z,100.00
2022-12-15T09:12:17.219Z,100.00
2022-12-15T09:14:47.085Z,100.00
2022-12-15T09:17:18.519Z,100.00
2022-12-15T09:19:48.646Z,100.00
2022-12-15T09:22:19.472Z,100.00
2022-12-15T09:24:51.028Z,100.00
2022-12-15T09:27:21.274Z,100.00
2022-12-15T09:29:51.166Z,100.00
2022-12-15T09:32:22.757Z,100.00
2022-12-15T09:34:53.075Z,100.00
2022-12-15T09:37:23.566Z,100.00
2022-12-15T09:39:53.761Z,100.00
2022-12-15T09:42:27.453Z,100.00
2022-12-15T09:45:01.412Z,100.00
2022-12-15T09:47:36.413Z,100.00
2022-12-15T09:50:08.932Z,100.00
2022-12-15T09:52:44.581Z,100.00
2022-12-15T09:55:19.375Z,100.00
2022-12-15T09:57:53.033Z,100.00
2022-12-15T10:00:26.014Z,100.00
2022-12-15T10:03:13.702Z,100.00
2022-12-15T10:08:41.882Z,100.00
2022-12-15T10:11:20.202Z,100.00
2022-12-15T10:13:53.730Z,100.00
2022-12-15T10:16:29.713Z,100.00
2022-12-15T10:19:04.203Z,100.00
2022-12-15T10:21:36.723Z,100.00
2022-12-15T10:25:07.452Z,100.00
2022-12-15T10:27:24.867Z,100.00
2022-12-15T10:30:00.022Z,100.00
2022-12-15T10:32:40.925Z,100.00
2022-12-15T10:35:17.792Z,100.00
2022-12-15T10:37:50.189Z,100.00
2022-12-15T10:40:21.164Z,100.00
2022-12-15T10:42:51.809Z,100.00
2022-12-15T10:45:37.416Z,100.00
2022-12-15T10:48:09.368Z,100.00
2022-12-15T10:50:39.047Z,100.00
2022-12-15T10:53:31.801Z,100.00
2022-12-15T10:56:02.581Z,100.00
2022-12-15T10:58:32.642Z,100.00
2022-12-15T11:01:17.262Z,100.00
2022-12-15T11:03:51.894Z,100.00
2022-12-15T11:06:23.393Z,100.00
2022-12-15T11:08:56.157Z,100.00
2022-12-15T11:11:45.158Z,100.00
2022-12-15T11:14:17.260Z,100.00
2022-12-15T11:16:50.133Z,100.00
2022-12-15T11:19:33.015Z,100.00
2022-12-15T11:22:05.350Z,98.90
2022-12-15T11:24:40.590Z,96.86
2022-12-15T11:27:17.640Z,96.10
2022-12-15T11:29:59.177Z,95.48
2022-12-15T11:32:30.238Z,94.77
2022-12-15T11:35:01.066Z,95.41
2022-12-15T11:37:41.278Z,95.23
2022-12-15T11:40:28.932Z,94.11
2022-12-15T11:43:09.121Z,94.81
2022-12-15T11:45:43.960Z,94.03
2022-12-15T11:48:17.690Z,93.69
2022-12-15T11:50:53.849Z,93.23
2022-12-15T11:53:38.321Z,93.64
2022-12-15T11:56:14.011Z,93.88
2022-12-15T11:58:59.639Z,92.16
2022-12-15T12:01:55.363Z,91.68
2022-12-15T12:04:30.330Z,90.81
2022-12-15T12:07:09.161Z,90.44
2022-12-15T12:09:41.808Z,89.88
2022-12-15T12:12:17.810Z,90.16
2022-12-15T12:14:53.551Z,89.19
2022-12-15T12:17:32.560Z,89.32
2022-12-15T12:22:59.109Z,89.50
2022-12-15T12:25:28.728Z,90.11
2022-12-15T12:28:01.899Z,89.38
2022-12-15T12:30:36.103Z,89.21
2022-12-15T12:33:12.818Z,90.23
2022-12-15T12:35:47.184Z,90.34
2022-12-15T12:38:21.881Z,91.01
2022-12-15T12:40:57.029Z,91.11
2022-12-15T12:43:33.186Z,91.86
2022-12-15T12:46:26.189Z,92.14
2022-12-15T12:48:59.484Z,93.99
2022-12-15T12:51:30.848Z,93.31
2022-12-15T12:54:01.719Z,94.17
2022-12-15T12:56:33.560Z,93.99
2022-12-15T12:59:09.032Z,93.95
2022-12-15T13:01:40.526Z,94.99
2022-12-15T13:04:12.971Z,95.27
2022-12-15T13:06:59.750Z,94.46
2022-12-15T13:09:40.394Z,94.46
2022-12-15T13:12:50.815Z,95.85
2022-12-15T13:15:18.822Z,95.82
2022-12-15T13:17:52.950Z,96.64
2022-12-15T13:20:27.720Z,96.73
2022-12-15T13:23:19.191Z,97.12
2022-12-15T13:26:03.623Z,97.53
2022-12-15T13:28:44.169Z,98.61
2022-12-15T13:31:36.946Z,98.41
2022-12-15T13:34:14.502Z,99.10
2022-12-15T13:36:49.265Z,98.84
2022-12-15T13:39:53.229Z,98.46
2022-12-15T13:42:38.825Z,99.14
2022-12-15T13:45:36.935Z,98.42
2022-12-15T13:48:28.153Z,98.52
2022-12-15T13:51:04.053Z,99.19
2022-12-15T13:53:39.463Z,99.14
2022-12-15T13:56:23.571Z,98.88
2022-12-15T13:58:57.843Z,99.55
2022-12-15T14:01:32.629Z,99.96
2022-12-15T14:04:08.233Z,100.00
2022-12-15T14:06:41.481Z,100.00
2022-12-15T14:09:15.071Z,100.00
2022-12-15T14:11:53.356Z,100.00
2022-12-15T14:14:26.201Z,100.00
2022-12-15T14:17:03.083Z,100.00
2022-12-15T14:19:41.075Z,100.00
2022-12-15T14:22:28.049Z,100.00
2022-12-15T14:25:03.980Z,100.00
2022-12-15T14:27:35.214Z,100.00
2022-12-15T14:30:22.718Z,100.00
2022-12-15T14:32:55.637Z,100.00
2022-12-15T14:35:27.582Z,100.00
2022-12-15T14:37:59.751Z,100.00
2022-12-15T14:40:30.473Z,100.00
2022-12-15T14:43:00.195Z,100.00
2022-12-15T14:45:32.445Z,100.00
2022-12-15T14:48:39.548Z,100.00
2022-12-15T14:50:53.663Z,100.00
2022-12-15T14:53:27.678Z,100.00
2022-12-15T14:55:59.603Z,100.00
2022-12-15T14:58:32.507Z,100.00
2022-12-15T15:01:03.643Z,100.00
2022-12-15T15:03:07.048Z,89.95
2022-12-15T15:03:07.967Z,100.00
2022-12-15T15:03:37.589Z,100.00
2022-12-15T15:06:16.292Z,100.00
2022-12-15T15:08:49.680Z,100.00
2022-12-15T15:11:23.151Z,100.00
2022-12-15T15:13:56.300Z,100.00
2022-12-15T15:16:27.042Z,100.00
2022-12-15T15:18:58.699Z,100.00
2022-12-15T15:21:30.533Z,100.00
2022-12-15T15:24:02.711Z,100.00
2022-12-15T15:26:33.182Z,100.00
2022-12-15T15:29:03.641Z,100.00
2022-12-15T15:31:41.569Z,100.00
2022-12-15T15:34:12.321Z,100.00
2022-12-15T15:36:43.043Z,100.00
2022-12-15T15:39:16.841Z,100.00
2022-12-15T15:41:46.910Z,100.00
2022-12-15T15:44:17.125Z,100.00
2022-12-15T15:46:49.143Z,100.00
2022-12-15T15:49:20.832Z,100.00
2022-12-15T15:51:50.962Z,100.00
2022-12-15T15:54:24.613Z,100.00
2022-12-15T15:56:54.673Z,100.00
2022-12-15T15:59:27.141Z,100.00
2022-12-15T16:01:58.091Z,100.00
2022-12-15T16:04:28.011Z,100.00
2022-12-15T16:06:57.981Z,100.00
2022-12-15T16:09:29.104Z,100.00
2022-12-15T16:11:59.812Z,100.00
2022-12-15T16:14:29.372Z,100.00
2022-12-15T16:17:00.262Z,100.00
2022-12-15T16:19:33.752Z,100.00
2022-12-15T16:22:06.362Z,100.00
2022-12-15T16:24:37.453Z,100.00
2022-12-15T16:27:07.670Z,100.00
2022-12-15T16:29:37.522Z,100.00
2022-12-15T16:32:08.314Z,100.00
2022-12-15T16:34:39.437Z,100.00
2022-12-15T16:37:16.243Z,100.00
2022-12-15T16:39:47.594Z,100.00
2022-12-15T16:42:17.992Z,100.00
2022-12-15T16:44:49.121Z,100.00
2022-12-15T16:47:19.760Z,100.00
2022-12-15T16:49:49.982Z,100.00
2022-12-15T16:52:22.768Z,100.00
2022-12-15T16:54:53.975Z,100.00
2022-12-15T16:57:25.577Z,100.00
2022-12-15T16:59:55.408Z,100.00
2022-12-15T17:02:27.576Z,100.00
2022-12-15T17:04:58.341Z,100.00
2022-12-15T17:07:30.450Z,100.00
2022-12-15T17:10:02.759Z,100.00
2022-12-15T17:12:34.221Z,100.00
2022-12-15T17:15:04.220Z,100.00
2022-12-15T17:17:34.854Z,100.00
2022-12-15T17:20:28.685Z,100.00
2022-12-15T17:22:57.054Z,100.00
2022-12-15T17:26:00.775Z,100.00
2022-12-15T17:28:22.942Z,100.00
2022-12-15T17:30:53.009Z,100.00
2022-12-15T17:33:24.160Z,100.00
2022-12-15T17:35:54.952Z,100.00
2022-12-15T17:38:25.554Z,100.00
2022-12-15T17:40:56.833Z,100.00
2022-12-15T17:43:33.787Z,100.00
2022-12-15T17:46:05.595Z,100.00
2022-12-15T17:48:36.489Z,100.00
2022-12-15T17:51:14.232Z,100.00
2022-12-15T17:53:45.144Z,100.00
2022-12-15T17:56:17.433Z,100.00
2022-12-15T17:58:47.646Z,100.00
2022-12-15T18:01:17.421Z,100.00
2022-12-15T18:03:47.652Z,100.00
2022-12-15T18:06:18.900Z,100.00
2022-12-15T18:08:48.926Z,100.00
2022-12-15T18:11:20.166Z,100.00
2022-12-15T18:13:50.206Z,100.00
2022-12-15T18:16:20.013Z,100.00
2022-12-15T18:18:51.026Z,100.00
2022-12-15T18:21:20.641Z,100.00
2022-12-15T18:23:50.713Z,100.00
2022-12-15T18:26:21.890Z,100.00
2022-12-15T18:28:52.307Z,100.00
2022-12-15T18:31:23.977Z,100.00
2022-12-15T18:33:55.654Z,100.00
2022-12-15T18:36:28.028Z,100.00
2022-12-15T18:38:58.131Z,100.00
2022-12-15T18:41:29.417Z,100.00
2022-12-15T18:43:59.400Z,100.00
2022-12-15T18:46:29.129Z,100.00
2022-12-15T18:49:00.594Z,100.00
2022-12-15T18:51:31.397Z,100.00
2022-12-15T18:54:02.920Z,100.00
2022-12-15T18:56:34.212Z,100.00
2022-12-15T18:59:04.261Z,100.00
2022-12-15T19:01:35.145Z,100.00
2022-12-15T19:04:05.578Z,100.00
2022-12-15T19:06:36.303Z,100.00
2022-12-15T19:09:07.455Z,100.00
2022-12-15T19:11:38.729Z,100.00
2022-12-15T19:14:34.646Z,100.00
2022-12-15T19:17:21.618Z,100.00
2022-12-15T19:20:08.849Z,100.00
2022-12-15T19:22:38.577Z,100.00
2022-12-15T19:25:11.579Z,100.00
2022-12-15T19:27:42.821Z,100.00
2022-12-15T19:30:16.108Z,100.00
2022-12-15T19:32:46.331Z,100.00
2022-12-15T19:35:16.610Z,100.00
2022-12-15T19:37:47.200Z,100.00
2022-12-15T19:40:22.567Z,100.00
2022-12-15T19:42:55.715Z,100.00
2022-12-15T19:45:26.942Z,100.00
2022-12-15T19:47:57.071Z,100.00
2022-12-15T19:50:28.190Z,100.00
2022-12-15T19:52:59.538Z,100.00
2022-12-15T19:55:32.863Z,100.00
2022-12-15T19:58:08.107Z,100.00
2022-12-15T20:00:39.797Z,100.00
2022-12-15T20:03:09.584Z,100.00
2022-12-15T20:05:39.897Z,100.00
2022-12-15T20:08:11.826Z,100.00
2022-12-15T20:10:42.299Z,100.00
2022-12-15T20:13:14.199Z,100.00
2022-12-15T20:15:44.489Z,100.00
2022-12-15T20:18:14.209Z,100.00
2022-12-15T20:20:45.899Z,100.00
2022-12-15T20:23:17.499Z,100.00
2022-12-15T20:25:47.882Z,100.00
2022-12-15T20:28:21.145Z,100.00
2022-12-15T20:30:51.238Z,100.00
2022-12-15T20:33:21.295Z,100.00
2022-12-15T20:35:51.937Z,100.00
2022-12-15T20:38:25.246Z,100.00
2022-12-15T20:40:55.477Z,100.00
2022-12-15T20:43:27.400Z,100.00
2022-12-15T20:46:01.150Z,100.00
2022-12-15T20:48:31.573Z,100.00
2022-12-15T20:51:05.838Z,100.00
2022-12-15T20:53:39.275Z,100.00
2022-12-15T20:56:09.638Z,100.00
2022-12-15T20:58:40.729Z,100.00
2022-12-15T21:01:21.168Z,100.00
2022-12-15T21:03:52.013Z,100.00
2022-12-15T21:06:22.388Z,100.00
2022-12-15T21:08:52.526Z,100.00
2022-12-15T21:11:24.601Z,100.00
2022-12-15T21:14:04.057Z,100.00
2022-12-15T21:16:34.274Z,100.00
2022-12-15T21:19:22.322Z,100.00
2022-12-15T21:21:55.897Z,100.00
2022-12-15T21:24:26.595Z,100.00
2022-12-15T21:26:56.844Z,100.00
2022-12-15T21:29:29.243Z,100.00
2022-12-15T21:31:59.262Z,100.00
2022-12-15T21:34:28.936Z,100.00
2022-12-15T21:36:59.282Z,100.00
2022-12-15T21:39:31.281Z,100.00
2022-12-15T21:42:02.212Z,100.00
2022-12-15T21:44:33.336Z,100.00
2022-12-15T21:47:03.242Z,100.00
2022-12-15T21:49:31.865Z,100.00
2022-12-15T21:52:02.443Z,100.00
2022-12-15T21:54:33.316Z,100.00
2022-12-15T21:57:04.184Z,100.00
2022-12-15T21:59:35.292Z,100.00
2022-12-15T22:02:17.409Z,100.00
2022-12-15T22:04:49.123Z,100.00
2022-12-15T22:07:19.286Z,100.00
2022-12-15T22:09:48.955Z,100.00
2022-12-15T22:12:21.034Z,100.00
2022-12-15T22:14:52.303Z,100.00
2022-12-15T22:17:22.898Z,100.00
2022-12-15T22:19:52.540Z,100.00
2022-12-15T22:22:24.738Z,100.00
2022-12-15T22:24:57.933Z,100.00
2022-12-15T22:27:28.313Z,100.00
2022-12-15T22:29:59.382Z,100.00
2022-12-15T22:32:30.593Z,100.00
2022-12-15T22:35:00.155Z,100.00
2022-12-15T22:37:30.143Z,100.00
2022-12-15T22:39:59.666Z,100.00
2022-12-15T22:42:29.576Z,100.00
2022-12-15T22:45:00.743Z,100.00
2022-12-15T22:47:30.753Z,100.00
2022-12-15T22:50:00.417Z,100.00
2022-12-15T22:52:30.413Z,100.00
2022-12-15T22:55:00.171Z,100.00
2022-12-15T22:57:30.634Z,100.00
2022-12-15T23:00:04.423Z,100.00
2022-12-15T23:02:35.774Z,100.00
2022-12-15T23:05:05.999Z,100.00
2022-12-15T23:07:36.361Z,100.00
2022-12-15T23:10:24.090Z,100.00
2022-12-15T23:12:54.874Z,100.00
2022-12-15T23:15:44.155Z,100.00
2022-12-15T23:18:14.570Z,100.00
2022-12-15T23:20:44.331Z,100.00
2022-12-15T23:23:14.259Z,100.00
2022-12-15T23:25:44.062Z,100.00
2022-12-15T23:28:14.373Z,100.00
2022-12-15T23:30:49.364Z,100.00
2022-12-15T23:33:19.732Z,100.00
2022-12-15T23:35:50.403Z,100.00
2022-12-15T23:38:20.351Z,100.00
2022-12-15T23:40:52.764Z,100.00
2022-12-15T23:43:23.562Z,100.00
2022-12-15T23:46:01.881Z,100.00
2022-12-15T23:48:32.961Z,100.00
2022-12-15T23:51:07.181Z,100.00
2022-12-15T23:53:39.200Z,100.00
2022-12-15T23:56:10.753Z,100.00
2022-12-15T23:58:41.204Z,100.00
